Time;durP1;ratioP1;P1;durP2;ratioP2;P2;SDS_P1;SDS_P2;PMS_P1;PMS_P2;Temp;Humidity;BMP_temperature;BMP_pressure;BME280_temperature;BME280_humidity;BME280_pressure;Samples;Min_cycle;Max_cycle;Signal;HPM_P1;HPM_P2
2022/06/19 00:01:10;;;;;;;5.43;4.00;;;;;;;17.36;55.66;94334.53;4984212;28;20087;-75
2022/06/19 00:03:43;;;;;;;5.05;3.60;;;;;;;17.27;55.52;94325.81;4986824;28;20034;-75
2022/06/19 00:06:08;;;;;;;4.28;3.25;;;;;;;17.15;55.82;94316.72;4986492;28;20041;-75
2022/06/19 00:08:34;;;;;;;3.72;3.33;;;;;;;17.23;55.96;94325.75;4985818;28;20334;-75
2022/06/19 00:11:01;;;;;;;5.72;3.53;;;;;;;17.15;55.92;94322.09;4986206;28;20026;-75
2022/06/19 00:13:26;;;;;;;4.07;3.40;;;;;;;17.02;56.03;94308.97;4984512;28;21053;-75
2022/06/19 00:15:52;;;;;;;4.40;3.60;;;;;;;17.03;56.13;94316.72;4985187;28;20104;-75
2022/06/19 00:18:17;;;;;;;4.25;3.55;;;;;;;17.07;56.00;94324.88;4989478;28;20117;-76
2022/06/19 00:20:43;;;;;;;5.05;3.90;;;;;;;16.97;55.99;94312.69;4987550;28;20030;-75
2022/06/19 00:23:08;;;;;;;3.45;3.17;;;;;;;17.02;55.79;94319.72;4985011;28;20038;-76
2022/06/19 00:25:35;;;;;;;6.45;3.60;;;;;;;17.05;55.99;94327.13;4985512;28;20045;-75
2022/06/19 00:28:01;;;;;;;4.88;2.88;;;;;;;16.88;55.91;94314.75;4986238;28;20222;-75
2022/06/19 00:30:26;;;;;;;3.80;3.17;;;;;;;16.95;55.92;94323.00;4985941;28;20044;-77
2022/06/19 00:32:52;;;;;;;5.72;3.88;;;;;;;16.83;56.05;94314.97;4985486;28;20033;-75
2022/06/19 00:35:18;;;;;;;4.30;2.58;;;;;;;16.98;56.14;94341.13;4989569;28;20120;-74
2022/06/19 00:37:43;;;;;;;3.95;2.83;;;;;;;16.99;55.80;94337.34;4983925;28;20041;-76
2022/06/19 00:40:10;;;;;;;3.25;2.45;;;;;;;17.00;55.86;94343.50;4986265;28;20038;-76
2022/06/19 00:42:36;;;;;;;4.60;3.20;;;;;;;16.90;55.52;94328.63;4985300;28;20080;-74
2022/06/19 00:45:03;;;;;;;2.75;2.55;;;;;;;16.81;55.96;94327.19;4985176;28;20498;-76
2022/06/19 00:47:35;;;;;;;3.90;2.47;;;;;;;16.82;56.17;94334.91;4984432;28;20372;-76
2022/06/19 00:50:36;;;;;;;2.70;2.40;;;;;;;16.85;55.99;94336.91;4986730;28;20527;-76
2022/06/19 00:53:05;;;;;;;3.72;2.70;;;;;;;16.84;56.16;94346.09;4975036;28;20613;-76
2022/06/19 00:55:38;;;;;;;3.00;2.35;;;;;;;16.74;56.21;94331.22;4985425;28;20093;-76
2022/06/19 00:58:21;;;;;;;3.60;2.60;;;;;;;16.68;55.85;94318.38;4985196;28;20172;-75
2022/06/19 01:00:51;;;;;;;2.90;2.58;;;;;;;16.74;56.18;94341.97;4986380;28;20041;-77
2022/06/19 01:03:46;;;;;;;4.25;2.95;;;;;;;16.72;56.41;94341.53;4986699;28;20503;-76
2022/06/19 01:06:11;;;;;;;2.50;2.30;;;;;;;16.58;56.34;94305.41;4981619;28;20125;-76
2022/06/19 01:08:37;;;;;;;3.10;2.72;;;;;;;16.36;55.79;94271.78;4986234;28;20571;-77
2022/06/19 01:11:03;;;;;;;6.82;2.85;;;;;;;16.45;56.04;94277.03;4985146;28;20034;-76
2022/06/19 01:13:30;;;;;;;2.75;2.40;;;;;;;16.67;56.10;94317.59;4985702;28;20574;-77
2022/06/19 01:15:56;;;;;;;2.90;2.60;;;;;;;16.54;56.05;94304.53;4986233;28;20085;-76
2022/06/19 01:18:22;;;;;;;3.28;2.70;;;;;;;16.58;56.27;94316.16;4985065;28;20125;-76
2022/06/19 01:20:52;;;;;;;2.63;2.33;;;;;;;16.67;56.18;94335.63;4983896;28;20036;-77
2022/06/19 01:23:20;;;;;;;3.88;3.35;;;;;;;16.61;56.53;94326.22;4984340;28;20029;-76
2022/06/19 01:25:49;;;;;;;4.03;3.40;;;;;;;16.60;56.44;94324.66;4985432;28;20046;-77
2022/06/19 01:31:08;;;;;;;4.93;2.53;;;;;;;16.56;56.68;94326.47;4986204;28;20049;-76
2022/06/19 01:33:40;;;;;;;4.53;2.78;;;;;;;16.46;56.30;94308.13;4982137;28;20090;-76
2022/06/19 01:36:07;;;;;;;3.35;2.90;;;;;;;16.48;56.53;94311.22;4985524;28;20468;-77
2022/06/19 01:38:34;;;;;;;3.45;3.15;;;;;;;16.56;56.78;94323.78;4986920;28;20025;-76
2022/06/19 01:41:06;;;;;;;4.22;3.58;;;;;;;16.57;56.57;94331.50;4986415;28;20048;-76
2022/06/19 01:43:33;;;;;;;4.40;2.92;;;;;;;16.51;56.76;94313.25;4989718;28;20133;-76
2022/06/19 01:45:58;;;;;;;3.28;2.58;;;;;;;16.47;56.36;94315.06;4987800;28;20855;-75
2022/06/19 01:48:29;;;;;;;3.50;3.20;;;;;;;16.40;56.80;94304.09;4986317;28;20049;-76
2022/06/19 01:50:56;;;;;;;5.10;3.65;;;;;;;16.51;56.82;94327.47;4984521;28;20533;-75
2022/06/19 01:53:29;;;;;;;6.32;3.00;;;;;;;16.53;56.66;94333.28;4988613;28;20049;-76
2022/06/19 01:55:55;;;;;;;5.03;3.47;;;;;;;16.48;56.63;94332.72;4990989;28;20030;-77
2022/06/19 01:58:22;;;;;;;3.80;3.15;;;;;;;16.41;56.70;94325.25;4990424;28;20030;-77
2022/06/19 02:00:49;;;;;;;4.70;3.30;;;;;;;16.47;56.45;94326.59;4989241;28;20326;-75
2022/06/19 02:03:39;;;;;;;3.00;2.70;;;;;;;16.50;56.72;94333.97;4986834;28;20252;-75
2022/06/19 02:06:04;;;;;;;3.72;3.20;;;;;;;16.30;56.74;94300.75;4986447;28;20509;-77
2022/06/19 02:08:33;;;;;;;6.43;2.70;;;;;;;16.33;56.86;94310.81;4988703;28;20029;-76
2022/06/19 02:10:59;;;;;;;3.38;2.95;;;;;;;16.43;56.67;94324.91;4989954;28;20034;-76
2022/06/19 02:13:25;;;;;;;6.10;3.53;;;;;;;16.45;56.54;94330.72;4987809;28;20118;-77
2022/06/19 02:15:53;;;;;;;4.55;3.05;;;;;;;16.43;56.66;94327.59;4989198;28;20034;-76
2022/06/19 02:18:31;;;;;;;2.97;2.60;;;;;;;16.43;56.49;94336.41;4990539;28;20042;-76
2022/06/19 02:20:57;;;;;;;4.70;3.28;;;;;;;16.39;56.50;94340.88;4990312;28;20633;-76
2022/06/19 02:23:30;;;;;;;4.88;3.30;;;;;;;16.23;56.70;94327.31;4989667;28;20117;-76
2022/06/19 02:25:56;;;;;;;3.67;3.20;;;;;;;16.36;56.66;94346.16;4987241;28;20360;-76
2022/06/19 02:28:22;;;;;;;3.97;3.08;;;;;;;16.22;56.18;94323.09;4987525;28;20057;-75
2022/06/19 02:30:48;;;;;;;3.33;3.00;;;;;;;16.29;56.22;94347.47;4987136;28;20487;-76
2022/06/19 02:33:16;;;;;;;3.47;3.08;;;;;;;16.33;56.15;94349.53;4989657;28;20050;-75
2022/06/19 02:35:41;;;;;;;3.28;2.85;;;;;;;16.24;56.48;94349.59;4988950;28;20129;-75
2022/06/19 02:38:07;;;;;;;3.00;2.45;;;;;;;16.23;56.52;94348.78;4990089;28;20486;-76
2022/06/19 02:40:38;;;;;;;4.72;3.00;;;;;;;16.24;56.67;94349.59;4987772;28;20037;-76
2022/06/19 02:43:14;;;;;;;5.22;3.13;;;;;;;15.78;56.80;94294.47;4987602;28;20258;-76
2022/06/19 02:45:40;;;;;;;3.95;2.92;;;;;;;16.14;56.84;94348.13;4988134;28;20173;-76
2022/06/19 02:48:07;;;;;;;2.78;2.30;;;;;;;16.17;56.94;94360.09;4989251;28;20772;-75
2022/06/19 02:50:34;;;;;;;2.90;2.65;;;;;;;16.10;56.86;94339.19;4988098;28;20507;-76
2022/06/19 02:53:00;;;;;;;4.13;2.40;;;;;;;16.20;56.42;94352.16;4988155;28;20486;-75
2022/06/19 02:55:25;;;;;;;3.10;2.80;;;;;;;16.10;56.66;94352.59;4990080;28;20046;-75
2022/06/19 02:57:52;;;;;;;3.33;3.03;;;;;;;16.05;56.58;94343.97;4988218;28;20500;-77
2022/06/19 03:00:24;;;;;;;3.70;3.03;;;;;;;16.11;56.90;94356.84;4988157;28;20034;-77
2022/06/19 03:02:52;;;;;;;5.15;3.10;;;;;;;16.16;56.61;94353.16;4993014;28;20080;-76
2022/06/19 03:05:26;;;;;;;6.25;3.47;;;;;;;16.15;56.16;94363.13;4988564;28;20407;-75
2022/06/19 03:07:52;;;;;;;4.72;3.30;;;;;;;16.10;56.76;94366.03;4986019;28;20117;-76
2022/06/19 03:10:17;;;;;;;3.50;3.13;;;;;;;16.06;56.89;94365.13;4987275;28;20481;-77
2022/06/19 03:12:43;;;;;;;4.43;3.10;;;;;;;16.01;57.29;94368.03;4989723;28;20030;-76
2022/06/19 03:15:10;;;;;;;5.60;2.90;;;;;;;16.06;57.46;94378.53;4988351;28;20038;-76
2022/06/19 03:17:35;;;;;;;5.28;2.72;;;;;;;16.11;57.14;94374.84;4994199;28;20076;-75
2022/06/19 03:20:01;;;;;;;2.42;2.22;;;;;;;16.05;57.05;94358.19;4989031;28;20021;-75
2022/06/19 03:22:26;;;;;;;3.22;2.70;;;;;;;16.16;57.03;94370.06;4988565;28;20054;-76
2022/06/19 03:24:51;;;;;;;3.08;2.50;;;;;;;16.10;56.78;94355.28;4986174;28;20590;-76
2022/06/19 03:27:17;;;;;;;4.43;2.90;;;;;;;16.15;57.06;94373.84;4990447;28;20043;-76
2022/06/19 03:29:43;;;;;;;4.70;2.65;;;;;;;16.10;57.65;94363.34;4988361;28;20565;-75
2022/06/19 03:32:13;;;;;;;4.32;2.78;;;;;;;16.20;57.72;94370.94;4986211;28;20741;-76
2022/06/19 03:34:42;;;;;;;3.42;2.80;;;;;;;16.26;57.85;94374.19;4988271;28;20042;-76
2022/06/19 03:37:07;;;;;;;3.97;2.70;;;;;;;16.26;58.01;94369.63;4987650;28;20077;-76
2022/06/19 03:39:33;;;;;;;4.85;2.72;;;;;;;16.28;58.07;94367.38;4986741;28;20034;-75
2022/06/19 03:41:58;;;;;;;4.90;3.40;;;;;;;16.29;58.71;94368.94;4991011;28;20038;-75
2022/06/19 03:44:24;;;;;;;4.85;2.78;;;;;;;16.35;58.61;94361.47;5001646;28;20064;-75
2022/06/19 03:46:49;;;;;;;4.15;3.15;;;;;;;16.35;58.38;94361.47;4987902;28;20099;-76
2022/06/19 03:49:15;;;;;;;4.05;3.20;;;;;;;16.41;58.62;94348.63;4987190;28;20482;-76
2022/06/19 03:51:40;;;;;;;4.97;3.70;;;;;;;16.41;58.54;94337.88;4987265;28;20038;-75
2022/06/19 03:54:08;;;;;;;4.22;3.58;;;;;;;16.45;58.91;94355.66;4987220;28;20042;-76
2022/06/19 03:56:34;;;;;;;5.63;4.00;;;;;;;16.41;59.81;94359.34;4985344;28;20080;-76
2022/06/19 03:59:00;;;;;;;5.00;4.50;;;;;;;16.26;60.66;94364.25;4989445;28;20031;-76
2022/06/19 04:01:36;;;;;;;7.38;4.45;;;;;;;16.36;60.66;94357.69;4987855;28;20042;-75
2022/06/19 04:04:03;;;;;;;7.07;6.03;;;;;;;16.19;60.87;94364.00;4986978;28;20030;-75
2022/06/19 04:06:31;;;;;;;12.57;9.40;;;;;;;16.27;60.45;94365.81;4986426;28;20084;-76
2022/06/19 04:08:58;;;;;;;12.38;10.45;;;;;;;16.38;60.52;94360.03;4987250;28;20058;-75
2022/06/19 04:11:25;;;;;;;14.98;11.70;;;;;;;16.24;60.19;94339.63;4987493;28;20553;-76
2022/06/19 04:13:53;;;;;;;17.25;14.60;;;;;;;16.62;60.00;94381.50;4987389;28;20604;-76
2022/06/19 04:16:21;;;;;;;15.68;13.00;;;;;;;16.56;59.13;94361.38;4986718;28;20076;-76
2022/06/19 04:18:48;;;;;;;19.58;14.10;;;;;;;16.33;58.81;94323.44;4989209;28;20070;-75
2022/06/19 04:21:16;;;;;;;45.88;40.95;;;;;;;16.68;58.28;94374.75;4986375;28;21077;-76
2022/06/19 04:23:43;;;;;;;30.10;26.67;;;;;;;16.67;58.36;94373.22;4987262;28;20035;-75
2022/06/19 04:26:10;;;;;;;23.40;20.17;;;;;;;16.53;58.10;94344.00;4987419;28;21635;-75
2022/06/19 04:28:36;;;;;;;29.10;22.67;;;;;;;16.44;58.57;94343.34;4987336;28;20042;-75
2022/06/19 04:31:01;;;;;;;26.85;23.35;;;;;;;16.59;57.94;94356.09;4985349;28;20030;-76
2022/06/19 04:33:26;;;;;;;34.05;27.73;;;;;;;16.62;57.92;94344.66;4987728;28;20030;-76
2022/06/19 04:35:52;;;;;;;17.20;13.93;;;;;;;16.65;58.67;94351.28;4986932;28;20648;-76
2022/06/19 04:38:17;;;;;;;15.43;12.75;;;;;;;16.73;59.49;94353.03;4989900;28;20036;-75
2022/06/19 04:40:43;;;;;;;17.15;14.50;;;;;;;16.89;59.67;94375.41;4984605;28;20034;-75
2022/06/19 04:43:11;;;;;;;12.50;10.93;;;;;;;17.00;58.98;94373.03;4987305;28;20393;-75
2022/06/19 04:45:38;;;;;;;12.18;10.10;;;;;;;16.85;58.49;94379.91;4987047;28;20046;-75
2022/06/19 04:48:04;;;;;;;12.63;10.20;;;;;;;16.78;58.82;94360.88;4987996;28;20125;-74
2022/06/19 04:50:30;;;;;;;9.70;7.82;;;;;;;16.81;59.09;94376.34;4986953;28;20040;-74
2022/06/19 04:52:55;;;;;;;12.35;10.23;;;;;;;16.81;59.35;94344.09;4985886;28;20043;-75
2022/06/19 04:55:21;;;;;;;13.77;10.23;;;;;;;17.31;57.79;94383.16;4987373;28;20060;-75
2022/06/19 04:57:47;;;;;;;11.32;9.30;;;;;;;17.29;58.76;94377.34;4988374;28;20892;-76
2022/06/19 05:00:15;;;;;;;14.35;9.23;;;;;;;17.22;60.03;94383.31;4986327;28;20049;-75
2022/06/19 05:02:41;;;;;;;12.63;9.38;;;;;;;17.41;59.01;94380.00;4988459;28;20057;-74
2022/06/19 05:05:07;;;;;;;12.02;9.95;;;;;;;17.48;59.37;94380.97;4986788;28;20034;-77
2022/06/19 05:07:34;;;;;;;14.75;9.95;;;;;;;17.65;58.94;94369.13;4985725;28;20597;-74
2022/06/19 05:09:59;;;;;;;13.90;11.05;;;;;;;17.72;58.49;94380.09;4987130;28;20121;-77
2022/06/19 05:12:25;;;;;;;15.68;10.90;;;;;;;17.72;57.30;94337.03;4987375;28;20061;-77
2022/06/19 05:14:52;;;;;;;13.98;10.73;;;;;;;17.83;57.81;94367.69;4999500;28;20745;-77
2022/06/19 05:17:18;;;;;;;19.00;13.10;;;;;;;17.52;57.97;94346.13;4986883;28;20026;-77
2022/06/19 05:19:43;;;;;;;20.15;16.10;;;;;;;17.87;58.64;94384.72;4985647;28;20045;-77
2022/06/19 05:22:09;;;;;;;19.65;15.07;;;;;;;17.81;57.32;94367.25;4985889;28;20559;-76
2022/06/19 05:24:35;;;;;;;18.67;13.85;;;;;;;18.11;55.78;94391.09;4986583;28;20039;-76
2022/06/19 05:27:05;;;;;;;16.25;13.63;;;;;;;17.56;55.42;94314.72;4988304;28;20399;-76
2022/06/19 05:29:32;;;;;;;20.52;13.52;;;;;;;18.06;55.96;94377.91;4989520;28;20040;-76
2022/06/19 05:31:58;;;;;;;14.95;10.35;;;;;;;18.10;55.97;94368.00;4989931;28;20077;-77
2022/06/19 05:34:23;;;;;;;10.73;9.10;;;;;;;18.07;55.76;94379.47;4988051;28;20121;-77
2022/06/19 05:36:49;;;;;;;11.35;8.57;;;;;;;17.99;54.34;94373.13;4991124;28;20674;-77
2022/06/19 05:39:14;;;;;;;15.07;9.45;;;;;;;18.18;55.84;94396.69;4991439;28;20407;-77
2022/06/19 05:41:40;;;;;;;12.55;10.20;;;;;;;18.27;55.47;94383.81;4990850;28;20386;-74
2022/06/19 05:44:06;;;;;;;16.35;11.52;;;;;;;18.23;55.07;94388.34;4988647;28;20164;-74
2022/06/19 05:46:31;;;;;;;12.20;8.80;;;;;;;18.35;54.13;94380.94;4989151;28;20034;-74
2022/06/19 05:48:57;;;;;;;16.42;11.68;;;;;;;18.36;54.68;94387.13;4990301;28;20488;-76
2022/06/19 05:51:24;;;;;;;16.70;12.02;;;;;;;18.04;55.10;94309.03;4989634;28;20061;-77
2022/06/19 05:53:56;;;;;;;14.90;11.82;;;;;;;18.42;55.48;94383.03;4988192;28;20052;-76
2022/06/19 05:56:23;;;;;;;14.90;11.38;;;;;;;18.42;55.64;94378.44;4990202;28;20029;-76
2022/06/19 05:58:48;;;;;;;12.52;9.45;;;;;;;18.63;54.59;94385.44;4989167;28;20432;-76
2022/06/19 06:01:16;;;;;;;13.32;9.02;;;;;;;18.56;54.64;94390.69;4993705;28;20060;-76
2022/06/19 06:03:44;;;;;;;12.35;8.40;;;;;;;18.68;55.58;94394.03;4990905;28;20026;-76
2022/06/19 06:06:19;;;;;;;10.18;9.18;;;;;;;18.81;54.75;94387.47;4987018;28;20058;-78
2022/06/19 06:08:45;;;;;;;11.48;8.25;;;;;;;18.75;55.56;94378.06;4990097;28;20053;-77
2022/06/19 06:11:11;;;;;;;9.30;7.05;;;;;;;18.54;55.60;94355.22;4988520;28;20026;-77
2022/06/19 06:13:36;;;;;;;10.63;7.10;;;;;;;18.85;55.71;94393.72;4989730;28;20157;-76
2022/06/19 06:16:02;;;;;;;9.40;6.93;;;;;;;19.07;54.50;94388.75;4988430;28;20064;-76
2022/06/19 06:18:29;;;;;;;8.35;6.28;;;;;;;19.02;55.12;94359.41;4988010;28;20177;-76
2022/06/19 06:21:01;;;;;;;7.30;6.32;;;;;;;19.16;53.35;94386.66;4988463;28;20058;-78
2022/06/19 06:23:27;;;;;;;9.30;7.07;;;;;;;19.19;54.16;94386.75;4988675;28;20034;-77
2022/06/19 06:26:08;;;;;;;7.97;5.80;;;;;;;19.07;53.95;94384.16;4989848;28;20050;-77
2022/06/19 06:28:38;;;;;;;7.63;6.30;;;;;;;19.05;53.13;94391.03;4989638;28;20034;-76
2022/06/19 06:31:04;;;;;;;7.63;6.45;;;;;;;19.28;53.51;94394.63;4989674;28;20936;-76
2022/06/19 06:33:30;;;;;;;7.25;5.88;;;;;;;19.19;54.07;94386.75;4987203;28;20038;-76
2022/06/19 06:35:55;;;;;;;7.47;5.97;;;;;;;19.30;52.57;94381.56;4988855;28;20108;-76
2022/06/19 06:38:22;;;;;;;9.60;6.53;;;;;;;19.29;53.13;94391.56;4986737;28;20014;-76
2022/06/19 06:40:48;;;;;;;6.53;5.20;;;;;;;19.43;52.50;94390.28;4987081;28;20341;-76
2022/06/19 06:43:14;;;;;;;5.65;4.60;;;;;;;19.47;52.27;94370.38;4986921;28;20049;-76
2022/06/19 06:45:40;;;;;;;5.47;3.67;;;;;;;19.33;51.06;94353.88;4986427;28;20049;-76
2022/06/19 06:48:05;;;;;;;4.75;3.95;;;;;;;19.39;50.33;94357.88;4982964;28;20538;-75
2022/06/19 06:50:31;;;;;;;4.13;3.40;;;;;;;19.52;48.91;94374.69;4985664;28;20026;-76
2022/06/19 06:52:56;;;;;;;6.22;4.00;;;;;;;19.75;50.21;94378.22;4984789;28;20048;-75
2022/06/19 06:55:22;;;;;;;4.82;2.97;;;;;;;19.78;49.28;94357.84;4987132;28;20044;-77
2022/06/19 06:57:47;;;;;;;4.00;2.25;;;;;;;20.04;46.63;94366.06;4988120;28;20038;-76
2022/06/19 07:00:21;;;;;;;3.15;2.40;;;;;;;20.17;47.06;94367.47;4980918;28;20480;-76
2022/06/19 07:02:47;;;;;;;1.90;1.70;;;;;;;19.73;44.29;94362.41;4980580;28;20527;-75
2022/06/19 07:05:12;;;;;;;1.80;1.50;;;;;;;19.68;42.62;94341.13;4983904;28;20026;-76
2022/06/19 07:07:38;;;;;;;1.40;1.20;;;;;;;19.91;41.65;94367.34;4984332;28;20125;-75
2022/06/19 07:10:04;;;;;;;1.80;1.30;;;;;;;20.09;40.48;94363.81;4981743;28;20030;-75
2022/06/19 07:12:29;;;;;;;1.58;0.98;;;;;;;20.27;38.80;94363.38;4980481;28;20041;-76
2022/06/19 07:14:56;;;;;;;1.50;1.30;;;;;;;19.84;40.17;94326.75;4980575;28;20104;-75
2022/06/19 07:17:21;;;;;;;1.27;1.00;;;;;;;20.13;39.55;94353.88;4984697;28;20041;-76
2022/06/19 07:19:47;;;;;;;0.90;0.90;;;;;;;20.17;39.74;94353.94;4984413;28;20727;-75
2022/06/19 07:22:15;;;;;;;0.90;0.90;;;;;;;20.11;38.29;94360.75;4981176;28;20510;-76
2022/06/19 07:24:42;;;;;;;2.05;1.02;;;;;;;19.78;37.62;94352.47;4966292;28;20677;-75
2022/06/19 07:27:07;;;;;;;0.80;0.80;;;;;;;19.62;37.18;94339.84;4980699;28;20107;-75
2022/06/19 07:29:33;;;;;;;1.23;0.85;;;;;;;19.98;37.54;94351.28;4981528;28;20219;-75
2022/06/19 07:31:58;;;;;;;1.92;0.90;;;;;;;20.04;38.24;94355.25;4983382;28;20119;-75
2022/06/19 07:34:24;;;;;;;1.55;1.00;;;;;;;19.95;37.18;94336.56;4980996;28;20038;-76
2022/06/19 07:36:49;;;;;;;1.77;1.05;;;;;;;20.30;37.31;94355.31;4981019;28;20606;-75
2022/06/19 07:39:15;;;;;;;1.08;0.90;;;;;;;20.02;36.71;94352.13;4983119;28;20117;-75
2022/06/19 07:41:40;;;;;;;1.10;1.00;;;;;;;19.44;37.29;94332.53;4978925;28;20582;-75
2022/06/19 07:44:06;;;;;;;1.02;0.98;;;;;;;19.53;37.42;94357.38;4981974;28;20717;-75
2022/06/19 07:46:31;;;;;;;1.35;1.13;;;;;;;19.84;38.13;94345.63;4979832;28;20505;-75
2022/06/19 07:51:40;;;;;;;1.00;1.00;;;;;;;19.54;37.61;94332.75;4983556;28;20605;-75
2022/06/19 07:54:07;;;;;;;4.43;0.90;;;;;;;19.60;36.53;94358.28;4980314;28;20071;-77
2022/06/19 07:56:33;;;;;;;1.00;0.90;;;;;;;19.51;36.31;94338.06;4981049;28;20022;-75
2022/06/19 07:58:58;;;;;;;1.52;1.05;;;;;;;19.64;36.71;94359.16;4984673;28;20034;-74
2022/06/19 08:01:24;;;;;;;2.15;1.17;;;;;;;19.82;38.23;94358.69;4982078;28;20088;-76
2022/06/19 08:03:50;;;;;;;1.20;0.95;;;;;;;19.95;37.03;94363.56;4981988;28;20041;-76
2022/06/19 08:06:17;;;;;;;1.02;0.80;;;;;;;20.32;38.14;94358.44;4983057;28;20799;-75
2022/06/19 08:08:43;;;;;;;1.30;0.90;;;;;;;20.37;38.11;94336.53;4986527;28;20026;-76
2022/06/19 08:11:09;;;;;;;1.85;0.90;;;;;;;20.00;37.38;94257.97;4983879;28;20728;-75
2022/06/19 08:13:35;;;;;;;2.65;1.38;;;;;;;20.36;36.86;94334.97;4985211;28;20035;-75
2022/06/19 08:16:06;;;;;;;3.65;1.30;;;;;;;20.21;37.32;94349.38;4984620;28;20402;-75
2022/06/19 08:18:34;;;;;;;1.35;1.10;;;;;;;20.35;37.17;94349.63;4987023;28;20529;-76
2022/06/19 08:21:01;;;;;;;1.50;1.30;;;;;;;20.58;38.70;94352.31;4982511;28;20420;-75
2022/06/19 08:23:27;;;;;;;1.20;1.10;;;;;;;20.10;37.23;94349.16;4985812;28;20042;-76
2022/06/19 08:25:53;;;;;;;1.75;0.90;;;;;;;20.48;37.70;94345.56;4967547;28;20585;-75
2022/06/19 08:28:24;;;;;;;1.60;1.10;;;;;;;20.15;37.28;94350.78;4980912;28;20046;-74
2022/06/19 08:30:49;;;;;;;1.52;1.10;;;;;;;20.11;37.22;94339.16;4987536;28;20856;-76
2022/06/19 08:33:15;;;;;;;1.60;0.90;;;;;;;19.94;37.40;94323.44;4982963;28;20073;-74
2022/06/19 08:35:50;;;;;;;0.90;0.88;;;;;;;20.03;39.53;94326.69;4984930;28;20487;-75
2022/06/19 08:38:22;;;;;;;1.08;0.93;;;;;;;20.33;37.96;94326.81;4972469;28;20549;-75
2022/06/19 08:41:09;;;;;;;2.05;1.10;;;;;;;20.10;37.72;94337.59;4978939;28;20242;-74
2022/06/19 08:43:45;;;;;;;1.50;1.40;;;;;;;19.65;36.79;94339.13;4980735;28;20501;-75
2022/06/19 08:46:32;;;;;;;2.35;0.90;;;;;;;19.79;36.56;94333.22;4982864;28;20032;-75
2022/06/19 08:49:13;;;;;;;5.88;1.90;;;;;;;19.52;37.71;94313.44;4981356;28;20033;-75
2022/06/19 08:52:16;;;;;;;5.00;1.20;;;;;;;19.60;38.58;94331.31;4973065;28;20046;-76
2022/06/19 08:55:05;;;;;;;2.40;0.90;;;;;;;19.67;38.42;94331.44;4982542;28;20038;-75
2022/06/19 08:57:50;;;;;;;1.23;1.00;;;;;;;19.60;37.41;94339.41;4985954;28;20520;-75
2022/06/19 09:00:58;;;;;;;1.00;0.93;;;;;;;19.29;35.14;94315.28;4987590;28;20545;-74
2022/06/19 09:03:26;;;;;;;0.90;0.75;;;;;;;19.41;36.47;94331.31;4987016;28;20038;-73
2022/06/19 09:06:21;;;;;;;1.00;0.90;;;;;;;19.48;34.89;94333.41;4983132;28;20104;-74
2022/06/19 09:08:49;;;;;;;1.13;1.00;;;;;;;19.33;35.64;94345.78;4987301;28;20057;-74
2022/06/19 09:11:35;;;;;;;0.80;0.80;;;;;;;19.45;36.46;94334.13;4989058;28;20026;-75
2022/06/19 09:14:29;;;;;;;6.18;1.45;;;;;;;19.58;36.53;94328.19;4988833;28;20042;-74
2022/06/19 09:17:10;;;;;;;0.93;0.82;;;;;;;19.42;35.37;94303.19;4981499;28;20054;-74
2022/06/19 09:19:46;;;;;;;1.92;0.85;;;;;;;19.90;36.32;94322.59;4987340;28;20082;-75
2022/06/19 09:22:33;;;;;;;1.27;0.90;;;;;;;20.01;36.64;94318.94;4985135;28;20109;-75
2022/06/19 09:25:28;;;;;;;1.27;1.08;;;;;;;19.85;35.78;94315.56;4985015;28;20045;-74
2022/06/19 09:28:09;;;;;;;1.20;0.70;;;;;;;19.80;35.69;94291.56;4988277;28;20124;-75
2022/06/19 09:31:10;;;;;;;0.70;0.70;;;;;;;19.60;34.72;94279.28;4989486;28;20279;-75
2022/06/19 09:34:03;;;;;;;3.60;1.00;;;;;;;19.88;35.54;94303.28;4984882;28;20403;-76
2022/06/19 09:36:40;;;;;;;1.00;1.00;;;;;;;19.92;35.02;94304.13;4984113;28;20046;-74
2022/06/19 09:39:11;;;;;;;1.15;0.80;;;;;;;19.81;35.22;94308.56;4989478;28;20049;-76
2022/06/19 09:41:59;;;;;;;1.10;1.00;;;;;;;19.88;35.12;94287.88;4985109;28;20056;-74
2022/06/19 09:44:38;;;;;;;1.75;0.75;;;;;;;19.98;34.12;94302.69;4977600;28;20104;-74
2022/06/19 09:47:13;;;;;;;1.40;1.05;;;;;;;20.13;34.85;94304.47;4982966;28;20072;-74
2022/06/19 09:49:46;;;;;;;1.20;0.70;;;;;;;20.00;35.36;94301.16;4984874;28;20038;-75
2022/06/19 09:52:17;;;;;;;1.27;1.17;;;;;;;19.80;35.30;94263.84;4987593;28;20493;-75
2022/06/19 09:54:51;;;;;;;1.27;0.90;;;;;;;20.01;34.13;94289.25;4990635;28;20039;-76
2022/06/19 09:57:28;;;;;;;4.35;1.20;;;;;;;20.10;35.40;94299.78;5001049;28;20040;-77
2022/06/19 10:00:27;;;;;;;0.77;0.70;;;;;;;20.45;36.17;94305.00;4987913;28;20054;-76
2022/06/19 10:03:01;;;;;;;1.23;0.90;;;;;;;20.57;35.41;94275.06;4983615;28;20037;-73
2022/06/19 10:05:42;;;;;;;1.90;1.00;;;;;;;20.98;34.60;94293.03;4987889;28;20133;-77
2022/06/19 10:08:17;;;;;;;0.85;0.80;;;;;;;20.72;34.44;94303.09;5001322;28;20809;-76
2022/06/19 10:10:50;;;;;;;1.00;0.73;;;;;;;20.40;33.64;94265.56;4988297;28;20167;-75
2022/06/19 10:13:47;;;;;;;2.28;1.10;;;;;;;20.75;34.20;94280.72;4986159;28;20037;-76
2022/06/19 10:16:54;;;;;;;1.70;0.95;;;;;;;20.55;33.33;94283.53;4985561;28;20038;-76
2022/06/19 10:19:29;;;;;;;0.90;0.90;;;;;;;20.56;33.16;94281.63;4960610;28;20406;-75
2022/06/19 10:22:27;;;;;;;1.45;1.35;;;;;;;20.69;34.46;94274.06;4985603;28;20040;-75
2022/06/19 10:25:04;;;;;;;1.02;0.93;;;;;;;20.87;34.20;94275.13;4992456;28;20129;-76
2022/06/19 10:28:02;;;;;;;1.13;0.85;;;;;;;20.89;33.90;94272.81;4983393;28;20050;-77
2022/06/19 10:30:37;;;;;;;0.75;0.75;;;;;;;21.00;34.29;94263.72;4986620;28;20156;-76
2022/06/19 10:33:50;;;;;;;0.80;0.80;;;;;;;20.90;33.69;94253.53;4986520;28;20742;-76
2022/06/19 10:36:37;;;;;;;0.70;0.70;;;;;;;21.05;34.90;94273.41;4987153;28;20054;-76
2022/06/19 10:39:02;;;;;;;3.15;1.13;;;;;;;21.19;34.03;94268.16;4987306;28;20043;-76
2022/06/19 10:44:51;;;;;;;0.90;0.90;;;;;;;21.31;33.49;94230.06;4985456;28;20065;-74
2022/06/19 10:47:54;;;;;;;0.73;0.73;;;;;;;21.11;33.22;94266.53;4985994;28;20132;-76
2022/06/19 10:50:25;;;;;;;0.77;0.77;;;;;;;21.30;33.08;94266.38;4986906;28;20034;-76
2022/06/19 10:53:03;;;;;;;1.95;0.90;;;;;;;20.86;32.66;94260.00;4984745;28;20404;-75
2022/06/19 10:56:36;;;;;;;1.15;0.93;;;;;;;20.88;33.23;94269.34;4990553;28;20518;-77
2022/06/19 10:59:04;;;;;;;1.42;1.00;;;;;;;20.62;34.03;94238.84;4912746;28;20403;-76
2022/06/19 11:04:23;;;;;;;1.17;1.10;;;;;;;20.42;34.35;94238.97;4965722;28;20112;-76
2022/06/19 11:06:54;;;;;;;1.27;0.90;;;;;;;20.87;34.68;94256.19;4967416;28;20372;-76
2022/06/19 11:09:41;;;;;;;0.80;0.80;;;;;;;21.09;33.65;94258.00;4973004;28;20139;-76
2022/06/19 11:12:20;;;;;;;1.50;1.02;;;;;;;21.59;33.71;94239.63;4980825;28;20026;-75
2022/06/19 11:15:10;;;;;;;0.85;0.85;;;;;;;21.63;35.13;94245.84;4990096;28;20029;-76
2022/06/19 11:17:41;;;;;;;1.23;1.05;;;;;;;21.83;33.78;94236.38;4978802;28;20038;-76
2022/06/19 11:20:28;;;;;;;0.80;0.80;;;;;;;21.71;33.22;94250.94;4966430;28;20134;-76
2022/06/19 11:23:03;;;;;;;0.75;0.75;;;;;;;21.50;32.07;94212.06;4967652;28;20038;-76
2022/06/19 11:25:31;;;;;;;0.95;0.88;;;;;;;21.59;33.02;94236.91;4966999;28;20041;-76
2022/06/19 11:28:10;;;;;;;1.13;1.02;;;;;;;21.78;33.99;94237.50;4967109;28;20133;-77
2022/06/19 11:30:41;;;;;;;1.05;0.98;;;;;;;21.92;33.13;94230.63;4968323;28;20034;-76
2022/06/19 11:33:40;;;;;;;1.65;0.90;;;;;;;21.59;31.56;94223.41;4966548;28;20038;-76
2022/06/19 11:36:08;;;;;;;0.70;0.70;;;;;;;21.77;32.15;94222.41;4947232;28;20662;-76
2022/06/19 11:38:36;;;;;;;1.55;0.80;;;;;;;21.85;33.52;94225.97;4967344;28;20031;-76
2022/06/19 11:41:15;;;;;;;1.70;0.80;;;;;;;21.61;32.07;94224.56;4958165;28;20117;-77
2022/06/19 11:43:40;;;;;;;1.17;0.95;;;;;;;21.33;33.70;94222.34;4968128;28;20141;-76
2022/06/19 11:46:24;;;;;;;0.77;0.70;;;;;;;21.46;32.94;94218.22;4967244;28;20594;-76
2022/06/19 11:48:50;;;;;;;0.87;0.80;;;;;;;21.42;32.02;94222.81;4967447;28;20035;-77
2022/06/19 11:51:20;;;;;;;0.85;0.75;;;;;;;21.74;32.08;94206.91;4965703;28;20041;-77
2022/06/19 11:53:53;;;;;;;1.05;0.90;;;;;;;21.41;32.17;94194.19;4966898;28;20522;-76
2022/06/19 11:56:38;;;;;;;1.73;1.42;;;;;;;21.56;33.93;94205.22;4966054;28;20129;-76
2022/06/19 11:59:16;;;;;;;2.90;2.17;;;;;;;21.39;32.71;94212.75;4965554;28;20034;-76
2022/06/19 12:01:43;;;;;;;1.90;1.33;;;;;;;21.64;32.15;94209.53;4966667;28;20562;-77